createdAt,value
2023-03-28T00:01:09.119Z,0.20
2023-03-28T00:03:40.054Z,0.20
2023-03-28T00:06:11.143Z,0.20
2023-03-28T00:08:40.634Z,0.10
2023-03-28T00:11:11.298Z,0.10
2023-03-28T00:13:39.521Z,0.10
2023-03-28T00:16:12.694Z,0.10
2023-03-28T00:18:41.540Z,0.20
2023-03-28T00:21:23.355Z,0.20
2023-03-28T00:23:53.675Z,0.20
2023-03-28T00:26:24.634Z,0.20
2023-03-28T00:28:53.368Z,0.20
2023-03-28T00:31:23.538Z,0.10
2023-03-28T00:33:51.671Z,0.10
2023-03-28T00:36:22.940Z,0.10
2023-03-28T00:38:52.176Z,0.10
2023-03-28T00:41:21.969Z,0.10
2023-03-28T00:43:52.079Z,0.10
2023-03-28T00:46:25.271Z,0.10
2023-03-28T00:48:57.409Z,0.10
2023-03-28T00:51:27.917Z,0.10
2023-03-28T00:54:00.010Z,0.10
2023-03-28T00:56:31.405Z,0.10
2023-03-28T00:59:03.289Z,0.10
2023-03-28T01:01:32.615Z,0.10
2023-03-28T01:04:05.344Z,0.10
2023-03-28T01:06:38.243Z,0.10
2023-03-28T01:09:08.965Z,0.10
2023-03-28T01:11:40.272Z,0.10
2023-03-28T01:15:04.635Z,0.10
2023-03-28T01:17:46.445Z,0.10
2023-03-28T01:20:27.526Z,0.10
2023-03-28T01:23:32.740Z,0.10
2023-03-28T01:26:42.228Z,0.20
2023-03-28T01:29:47.389Z,0.10
2023-03-28T01:32:41.626Z,0.10
2023-03-28T01:35:46.949Z,0.00
2023-03-28T01:38:22.300Z,0.10
2023-03-28T01:40:58.103Z,0.10
2023-03-28T01:43:35.872Z,0.10
2023-03-28T01:46:12.336Z,0.10
2023-03-28T01:48:54.846Z,0.10
2023-03-28T01:51:32.313Z,0.10
2023-03-28T01:54:10.707Z,0.10
2023-03-28T01:56:43.368Z,0.10
2023-03-28T01:59:18.268Z,0.10
2023-03-28T02:02:24.640Z,0.10
2023-03-28T02:04:57.049Z,0.10
2023-03-28T02:07:26.937Z,0.10
2023-03-28T02:10:26.764Z,0.10
2023-03-28T02:13:03.881Z,0.10
2023-03-28T02:15:51.480Z,0.10
2023-03-28T02:18:55.600Z,0.10
2023-03-28T02:21:46.574Z,0.10
2023-03-28T02:24:50.521Z,0.10
2023-03-28T02:27:37.727Z,0.10
2023-03-28T02:30:28.797Z,0.10
2023-03-28T02:33:00.794Z,0.10
2023-03-28T02:35:34.423Z,0.10
2023-03-28T02:38:08.135Z,0.10
2023-03-28T02:40:53.304Z,0.10
2023-03-28T02:43:56.289Z,0.10
2023-03-28T02:46:31.134Z,0.10
2023-03-28T02:49:43.825Z,0.20
2023-03-28T02:52:30.552Z,0.20
2023-03-28T02:55:03.211Z,0.30
2023-03-28T02:57:42.788Z,0.30
2023-03-28T03:00:16.566Z,0.20
2023-03-28T03:02:48.096Z,0.30
2023-03-28T03:05:17.663Z,0.30
2023-03-28T03:07:45.712Z,0.30
2023-03-28T03:10:15.246Z,0.30
2023-03-28T03:12:46.734Z,0.30
2023-03-28T03:15:17.442Z,0.30
2023-03-28T03:17:56.631Z,0.20
2023-03-28T03:20:27.154Z,0.20
2023-03-28T03:22:55.474Z,0.20
2023-03-28T03:25:23.541Z,0.20
2023-03-28T03:27:59.436Z,0.20
2023-03-28T03:30:28.910Z,0.20
2023-03-28T03:33:17.549Z,0.20
2023-03-28T03:35:47.282Z,0.20
2023-03-28T03:38:16.285Z,0.20
2023-03-28T03:40:44.512Z,0.30
2023-03-28T03:43:39.365Z,0.30
2023-03-28T03:46:08.773Z,0.30
2023-03-28T03:48:36.749Z,0.30
2023-03-28T03:51:04.896Z,0.30
2023-03-28T03:53:34.885Z,0.30
2023-03-28T03:56:11.538Z,0.30
2023-03-28T03:58:53.046Z,0.30
2023-03-28T04:01:25.889Z,0.30
2023-03-28T04:03:55.668Z,0.20
2023-03-28T04:06:30.442Z,0.20
2023-03-28T04:08:58.645Z,0.20
2023-03-28T04:12:01.693Z,0.20
2023-03-28T04:14:31.757Z,0.20
2023-03-28T04:17:34.731Z,0.20
2023-03-28T04:20:12.848Z,0.20
2023-03-28T04:23:01.263Z,0.20
2023-03-28T04:25:31.419Z,0.30
2023-03-28T04:28:05.732Z,0.30
2023-03-28T04:30:41.636Z,0.30
2023-03-28T04:33:33.845Z,0.20
2023-03-28T04:36:03.531Z,0.30
2023-03-28T04:38:36.502Z,0.30
2023-03-28T04:41:46.195Z,0.30
2023-03-28T04:44:30.778Z,0.30
2023-03-28T04:47:04.027Z,0.20
2023-03-28T04:49:34.305Z,0.20
2023-03-28T04:52:02.291Z,0.30
2023-03-28T04:54:30.409Z,0.30
2023-03-28T04:57:10.123Z,0.30
2023-03-28T04:59:46.402Z,0.30
2023-03-28T05:02:23.069Z,0.30
2023-03-28T05:04:59.193Z,0.40
2023-03-28T05:07:27.829Z,0.40
2023-03-28T05:09:56.096Z,0.40
2023-03-28T05:12:24.112Z,0.40
2023-03-28T05:14:58.718Z,0.40
2023-03-28T05:17:27.668Z,0.40
2023-03-28T05:20:00.203Z,0.30
2023-03-28T05:22:34.658Z,0.30
2023-03-28T05:25:03.635Z,0.30
2023-03-28T05:27:31.772Z,0.40
2023-03-28T05:29:59.666Z,0.40
2023-03-28T05:32:28.529Z,0.40
2023-03-28T05:34:57.094Z,0.40
2023-03-28T05:37:30.696Z,0.40
2023-03-28T05:39:59.579Z,0.40
2023-03-28T05:42:27.515Z,0.40
2023-03-28T05:44:55.573Z,0.40
2023-03-28T05:47:39.235Z,0.40
2023-03-28T05:50:08.647Z,0.40
2023-03-28T05:52:38.162Z,0.40
2023-03-28T05:55:08.445Z,0.40
2023-03-28T05:57:36.402Z,0.40
2023-03-28T06:00:13.661Z,0.50
2023-03-28T06:02:47.684Z,0.50
2023-03-28T06:05:19.585Z,0.50
2023-03-28T06:07:49.241Z,0.60
2023-03-28T06:10:19.415Z,0.60
2023-03-28T06:13:16.457Z,0.60
2023-03-28T06:15:47.283Z,0.70
2023-03-28T06:18:15.342Z,0.70
2023-03-28T06:20:46.677Z,0.80
2023-03-28T06:23:16.082Z,0.80
2023-03-28T06:25:45.002Z,0.90
2023-03-28T06:28:15.704Z,0.90
2023-03-28T06:31:02.316Z,1.00
2023-03-28T06:33:30.533Z,1.10
2023-03-28T06:35:58.571Z,1.10
2023-03-28T06:38:32.083Z,1.20
2023-03-28T06:41:00.400Z,1.20
2023-03-28T06:43:31.091Z,1.20
2023-03-28T06:46:09.551Z,1.30
2023-03-28T06:48:43.135Z,1.30
2023-03-28T06:51:40.454Z,1.40
2023-03-28T06:54:09.691Z,1.50
2023-03-28T06:56:37.903Z,1.60
2023-03-28T06:59:06.116Z,1.70
2023-03-28T07:01:35.719Z,1.70
2023-03-28T07:04:07.424Z,1.80
2023-03-28T07:06:36.842Z,1.90
2023-03-28T07:09:06.598Z,2.10
2023-03-28T07:11:58.301Z,2.50
2023-03-28T07:14:26.298Z,2.80
2023-03-28T07:16:54.990Z,2.80
2023-03-28T07:19:23.240Z,2.70
2023-03-28T07:21:53.902Z,2.40
2023-03-28T07:24:23.232Z,2.30
2023-03-28T07:27:15.730Z,2.10
2023-03-28T07:29:46.152Z,2.00
2023-03-28T07:32:14.389Z,2.00
2023-03-28T07:34:45.975Z,2.00
2023-03-28T07:37:19.643Z,1.90
2023-03-28T07:40:10.784Z,1.90
2023-03-28T07:42:42.245Z,2.10
2023-03-28T07:45:11.973Z,2.70
2023-03-28T07:47:39.932Z,2.80
2023-03-28T07:50:08.984Z,3.30
2023-03-28T07:52:37.400Z,4.10
2023-03-28T07:55:06.544Z,4.60
2023-03-28T07:57:38.159Z,4.90
2023-03-28T08:00:27.527Z,5.30
2023-03-28T08:03:15.969Z,5.40
2023-03-28T08:05:51.564Z,5.70
2023-03-28T08:08:21.925Z,5.80
2023-03-28T08:11:03.532Z,5.70
2023-03-28T08:13:31.531Z,5.30
2023-03-28T08:16:07.430Z,5.10
2023-03-28T08:18:35.430Z,5.10
2023-03-28T08:21:04.121Z,5.00
2023-03-28T08:23:34.742Z,5.10
2023-03-28T08:26:21.562Z,5.50
2023-03-28T08:28:54.979Z,5.60
2023-03-28T08:31:25.326Z,5.50
2023-03-28T08:33:56.543Z,5.30
2023-03-28T08:36:29.603Z,5.50
2023-03-28T08:39:00.696Z,6.10
2023-03-28T08:41:45.182Z,6.50
2023-03-28T08:58:03.401Z,5.10
2023-03-28T09:04:36.028Z,5.80
2023-03-28T09:07:26.584Z,6.60
2023-03-28T09:10:10.060Z,7.20
2023-03-28T09:12:58.644Z,7.70
2023-03-28T09:15:37.365Z,8.00
2023-03-28T09:18:26.202Z,7.90
2023-03-28T09:21:03.235Z,7.60
2023-03-28T09:23:53.798Z,7.30
2023-03-28T09:26:28.632Z,6.80
2023-03-28T09:29:05.816Z,6.30
2023-03-28T09:31:41.109Z,6.00
2023-03-28T09:34:18.111Z,6.20
2023-03-28T09:36:49.784Z,6.60
2023-03-28T09:39:28.478Z,7.10
2023-03-28T09:42:05.533Z,7.20
2023-03-28T09:44:55.042Z,6.80
2023-03-28T09:47:43.766Z,6.80
2023-03-28T09:50:16.209Z,6.90
2023-03-28T09:52:51.902Z,6.80
2023-03-28T09:55:21.966Z,6.80
2023-03-28T09:58:02.510Z,6.60
2023-03-28T10:00:36.133Z,6.40
2023-03-28T10:03:32.229Z,6.00
2023-03-28T10:06:19.302Z,5.80
2023-03-28T10:08:48.456Z,5.70
2023-03-28T10:11:23.944Z,5.70
2023-03-28T10:13:55.595Z,5.60
2023-03-28T10:16:28.485Z,5.40
2023-03-28T10:19:03.770Z,5.00
2023-03-28T10:21:37.390Z,4.90
2023-03-28T10:24:15.972Z,5.20
2023-03-28T10:26:52.035Z,5.60
2023-03-28T10:29:21.752Z,6.10
2023-03-28T10:31:51.530Z,6.50
2023-03-28T10:34:34.938Z,6.80
2023-03-28T10:37:24.445Z,7.00
2023-03-28T10:40:29.817Z,7.10
2023-03-28T10:43:16.793Z,7.00
2023-03-28T10:46:12.156Z,6.80
2023-03-28T10:49:01.884Z,6.50
2023-03-28T10:51:32.615Z,6.80
2023-03-28T10:54:41.344Z,6.90
2023-03-28T10:57:26.679Z,7.30
2023-03-28T11:00:06.757Z,7.80
2023-03-28T11:03:05.809Z,8.00
2023-03-28T11:05:58.106Z,8.10
2023-03-28T11:08:43.495Z,7.70
2023-03-28T11:11:36.792Z,7.30
2023-03-28T11:14:18.722Z,6.90
2023-03-28T11:16:55.062Z,6.40
2023-03-28T11:20:00.545Z,6.40
2023-03-28T11:22:41.572Z,6.80
2023-03-28T11:25:22.974Z,7.10
2023-03-28T11:28:14.076Z,7.00
2023-03-28T11:30:50.643Z,6.80
2023-03-28T11:33:33.976Z,6.50
2023-03-28T11:36:11.383Z,6.20
2023-03-28T11:38:43.276Z,5.90
2023-03-28T11:41:14.587Z,5.60
2023-03-28T11:44:12.117Z,5.50
2023-03-28T11:46:47.162Z,5.60
2023-03-28T11:49:21.242Z,5.90
2023-03-28T11:51:59.243Z,6.20
2023-03-28T11:54:36.597Z,6.70
2023-03-28T11:57:13.150Z,7.10
2023-03-28T11:59:55.426Z,7.60
2023-03-28T12:02:41.018Z,7.60
2023-03-28T12:05:21.001Z,7.80
2023-03-28T12:07:58.835Z,8.00
2023-03-28T12:10:36.206Z,7.60
2023-03-28T12:13:23.339Z,7.20
2023-03-28T12:16:04.872Z,7.00
2023-03-28T12:18:41.228Z,6.70
2023-03-28T12:21:20.281Z,6.50
2023-03-28T12:24:05.714Z,6.40
2023-03-28T12:26:54.792Z,6.30
2023-03-28T12:29:30.591Z,6.30
2023-03-28T12:32:05.300Z,6.20
2023-03-28T12:34:39.820Z,6.10
2023-03-28T12:37:33.338Z,6.20
2023-03-28T12:40:23.617Z,6.30
2023-03-28T12:42:55.103Z,6.60
2023-03-28T12:45:39.266Z,6.70
2023-03-28T12:48:10.567Z,6.70
2023-03-28T12:50:47.338Z,6.60
2023-03-28T12:53:17.194Z,6.60
2023-03-28T12:55:51.560Z,6.50
2023-03-28T12:58:27.687Z,6.40
2023-03-28T13:01:33.519Z,6.30
2023-03-28T13:04:22.657Z,6.30
2023-03-28T13:07:09.727Z,6.40
2023-03-28T13:09:46.728Z,6.60
2023-03-28T13:12:30.783Z,7.00
2023-03-28T13:15:01.386Z,7.50
2023-03-28T13:17:31.352Z,7.70
2023-03-28T13:20:10.367Z,7.90
2023-03-28T13:22:44.264Z,7.90
2023-03-28T13:25:28.329Z,7.80
2023-03-28T13:28:00.667Z,7.70
2023-03-28T13:30:30.764Z,7.50
2023-03-28T13:33:02.261Z,7.40
2023-03-28T13:35:45.089Z,7.20
2023-03-28T13:38:24.680Z,7.30
2023-03-28T13:40:55.872Z,7.30
2023-03-28T13:43:28.094Z,7.40
2023-03-28T13:45:59.575Z,7.60
2023-03-28T13:48:33.675Z,7.70
2023-03-28T13:51:06.943Z,7.70
2023-03-28T13:53:47.123Z,7.70
2023-03-28T13:56:24.321Z,7.70
2023-03-28T13:58:56.238Z,7.70
2023-03-28T14:01:26.994Z,7.70
2023-03-28T14:03:56.270Z,7.60
2023-03-28T14:06:25.988Z,7.50
2023-03-28T14:08:55.789Z,7.30
2023-03-28T14:11:30.392Z,7.30
2023-03-28T14:14:09.541Z,7.40
2023-03-28T14:16:38.978Z,7.30
2023-03-28T14:19:07.707Z,7.20
2023-03-28T14:21:36.160Z,7.00
2023-03-28T14:24:07.466Z,6.90
2023-03-28T14:26:37.292Z,6.80
2023-03-28T14:29:11.291Z,6.60
2023-03-28T14:31:41.623Z,6.50
2023-03-28T14:34:24.583Z,6.40
2023-03-28T14:36:59.261Z,6.30
2023-03-28T14:39:29.266Z,6.30
2023-03-28T14:42:00.710Z,6.20
2023-03-28T14:44:31.401Z,6.10
2023-03-28T14:47:00.962Z,6.00
2023-03-28T14:49:29.759Z,6.00
2023-03-28T14:52:00.142Z,5.90
2023-03-28T14:54:32.658Z,5.90
2023-03-28T14:57:02.008Z,5.90
2023-03-28T14:59:38.093Z,5.90
2023-03-28T15:02:07.308Z,6.00
2023-03-28T15:04:36.721Z,6.10
2023-03-28T15:07:08.998Z,6.10
2023-03-28T15:09:37.110Z,6.10
2023-03-28T15:12:09.150Z,6.10
2023-03-28T15:14:42.709Z,6.10
2023-03-28T15:17:20.160Z,6.20
2023-03-28T15:19:52.676Z,6.10
2023-03-28T15:22:24.561Z,6.00
2023-03-28T15:24:52.835Z,5.90
2023-03-28T15:27:26.993Z,5.80
2023-03-28T15:29:57.022Z,5.70
2023-03-28T15:32:27.514Z,5.70
2023-03-28T15:35:00.764Z,5.60
2023-03-28T15:37:29.097Z,5.50
2023-03-28T15:40:22.183Z,5.40
2023-03-28T15:42:51.812Z,5.30
2023-03-28T15:45:40.883Z,5.30
2023-03-28T15:48:19.762Z,5.30
2023-03-28T15:50:53.960Z,5.30
2023-03-28T15:53:26.613Z,5.30
2023-03-28T15:55:54.819Z,5.30
2023-03-28T15:58:23.429Z,5.30
2023-03-28T16:00:55.685Z,5.40
2023-03-28T16:03:36.063Z,5.50
2023-03-28T16:06:26.691Z,5.50
2023-03-28T16:09:21.093Z,5.60
2023-03-28T16:11:53.763Z,5.60
2023-03-28T16:14:45.025Z,5.60
2023-03-28T16:17:29.250Z,5.50
2023-03-28T16:20:16.394Z,5.40
2023-03-28T16:22:44.806Z,5.30
2023-03-28T16:25:13.103Z,5.20
2023-03-28T16:27:42.405Z,5.20
2023-03-28T16:30:19.204Z,5.10
2023-03-28T16:32:48.809Z,5.10
2023-03-28T16:35:17.045Z,5.20
2023-03-28T16:37:45.032Z,5.10
2023-03-28T16:40:13.794Z,5.10
2023-03-28T16:42:41.771Z,5.10
2023-03-28T16:45:12.958Z,5.00
2023-03-28T16:47:41.480Z,5.10
2023-03-28T16:50:11.583Z,5.00
2023-03-28T16:52:40.521Z,5.00
2023-03-28T16:55:10.229Z,5.00
2023-03-28T16:57:38.429Z,5.00
2023-03-28T17:00:07.929Z,4.90
2023-03-28T17:02:36.585Z,4.90
2023-03-28T17:05:05.240Z,4.90
2023-03-28T17:07:34.528Z,4.80
2023-03-28T17:10:02.958Z,4.80
2023-03-28T17:12:31.810Z,4.70
2023-03-28T17:14:59.908Z,4.70
2023-03-28T17:17:28.466Z,4.60
2023-03-28T17:19:56.860Z,4.50
2023-03-28T17:22:25.546Z,4.50
2023-03-28T17:24:57.213Z,4.40
2023-03-28T17:27:25.501Z,4.30
2023-03-28T17:29:53.563Z,4.20
2023-03-28T17:32:22.106Z,4.10
2023-03-28T17:34:50.309Z,4.00
2023-03-28T17:37:18.677Z,3.80
2023-03-28T17:39:47.284Z,3.70
2023-03-28T17:42:16.831Z,3.60
2023-03-28T17:44:44.906Z,3.50
2023-03-28T17:47:13.051Z,3.40
2023-03-28T17:49:41.194Z,3.30
2023-03-28T17:52:10.175Z,3.20
2023-03-28T17:54:38.508Z,3.10
2023-03-28T17:57:07.989Z,2.90
2023-03-28T17:59:37.357Z,2.80
2023-03-28T18:02:05.499Z,2.70
2023-03-28T18:04:33.950Z,2.60
2023-03-28T18:07:16.596Z,2.60
2023-03-28T18:09:45.636Z,2.50
2023-03-28T18:12:14.401Z,2.40
2023-03-28T18:14:44.733Z,2.30
2023-03-28T18:17:13.122Z,2.20
2023-03-28T18:19:41.033Z,2.10
2023-03-28T18:22:08.936Z,2.00
2023-03-28T18:24:36.866Z,2.00
2023-03-28T18:27:04.932Z,1.90
2023-03-28T18:29:32.871Z,1.90
2023-03-28T18:32:02.218Z,1.80
2023-03-28T18:34:39.810Z,1.80
2023-03-28T18:37:07.796Z,1.70
2023-03-28T18:39:36.245Z,1.70
2023-03-28T18:42:05.375Z,1.60
2023-03-28T18:44:35.669Z,1.60
2023-03-28T18:47:05.715Z,1.60
2023-03-28T18:49:34.605Z,1.60
2023-03-28T18:52:04.923Z,1.60
2023-03-28T18:54:33.694Z,1.50
2023-03-28T18:57:03.290Z,1.50
2023-03-28T18:59:32.351Z,1.50
2023-03-28T19:02:00.889Z,1.50
2023-03-28T19:04:30.338Z,1.50
2023-03-28T19:06:58.345Z,1.50
2023-03-28T19:09:26.891Z,1.50
2023-03-28T19:11:55.088Z,1.50
2023-03-28T19:14:23.190Z,1.40
2023-03-28T19:16:51.351Z,1.40
2023-03-28T19:19:19.270Z,1.40
2023-03-28T19:21:48.504Z,1.40
2023-03-28T19:24:16.680Z,1.40
2023-03-28T19:26:44.555Z,1.40
2023-03-28T19:29:12.478Z,1.40
2023-03-28T19:31:40.386Z,1.40
2023-03-28T19:34:08.711Z,1.40
2023-03-28T19:36:36.647Z,1.40
2023-03-28T19:39:06.022Z,1.40
2023-03-28T19:41:34.295Z,1.40
2023-03-28T19:44:02.307Z,1.40
2023-03-28T19:46:33.784Z,1.40
2023-03-28T19:49:05.711Z,1.40
2023-03-28T19:51:34.641Z,1.30
2023-03-28T19:54:02.541Z,1.30
2023-03-28T19:56:32.177Z,1.30
2023-03-28T19:59:00.536Z,1.30
2023-03-28T20:01:28.897Z,1.30
2023-03-28T20:03:57.047Z,1.20
2023-03-28T20:06:25.732Z,1.30
2023-03-28T20:08:53.926Z,1.20
2023-03-28T20:11:22.019Z,1.20
2023-03-28T20:13:51.399Z,1.20
2023-03-28T20:16:20.423Z,1.20
2023-03-28T20:18:48.638Z,1.20
2023-03-28T20:21:16.691Z,1.20
2023-03-28T20:23:44.823Z,1.20
2023-03-28T20:26:15.793Z,1.20
2023-03-28T20:28:46.757Z,1.20
2023-03-28T20:31:16.858Z,1.10
2023-03-28T20:33:45.046Z,1.10
2023-03-28T20:36:13.050Z,1.10
2023-03-28T20:38:41.265Z,1.00
2023-03-28T20:41:12.610Z,1.00
2023-03-28T20:43:47.217Z,1.00
2023-03-28T20:46:19.601Z,0.90
2023-03-28T20:48:52.000Z,0.90
2023-03-28T20:51:22.294Z,0.90
2023-03-28T20:53:53.466Z,0.90
2023-03-28T20:56:21.883Z,0.80
2023-03-28T20:58:50.776Z,0.80
2023-03-28T21:01:26.580Z,0.70
2023-03-28T21:03:57.323Z,0.70
2023-03-28T21:06:29.292Z,0.60
2023-03-28T21:08:59.764Z,0.60
2023-03-28T21:11:30.527Z,0.50
2023-03-28T21:13:59.732Z,0.40
2023-03-28T21:16:30.307Z,0.40
2023-03-28T21:18:59.942Z,0.40
2023-03-28T21:21:29.768Z,0.30
2023-03-28T21:23:58.001Z,0.30
2023-03-28T21:26:27.043Z,0.20
2023-03-28T21:28:55.047Z,0.20
2023-03-28T21:31:25.589Z,0.20
2023-03-28T21:33:56.825Z,0.20
2023-03-28T21:36:25.593Z,0.20
2023-03-28T21:38:53.618Z,0.20
2023-03-28T21:41:22.404Z,0.20
2023-03-28T21:43:50.616Z,0.20
2023-03-28T21:46:19.519Z,0.20
2023-03-28T21:48:48.255Z,0.30
2023-03-28T21:51:18.242Z,0.30
2023-03-28T21:53:46.193Z,0.40
2023-03-28T21:56:16.302Z,0.40
2023-03-28T21:58:44.302Z,0.50
2023-03-28T22:01:14.489Z,0.30
2023-03-28T22:03:42.707Z,0.30
2023-03-28T22:06:11.435Z,0.40
2023-03-28T22:08:41.566Z,0.40
2023-03-28T22:11:14.591Z,0.40
2023-03-28T22:13:42.783Z,0.50
2023-03-28T22:16:12.785Z,0.60
2023-03-28T22:18:41.454Z,0.70
2023-03-28T22:21:13.937Z,0.70
2023-03-28T22:23:47.053Z,0.80
2023-03-28T22:26:15.771Z,0.80
2023-03-28T22:28:43.806Z,0.90
2023-03-28T22:31:11.887Z,0.90
2023-03-28T22:33:40.068Z,0.90
2023-03-28T22:36:09.082Z,0.90
2023-03-28T22:38:37.462Z,1.00
2023-03-28T22:41:07.631Z,0.90
2023-03-28T22:43:37.343Z,0.90
2023-03-28T22:46:06.504Z,1.00
2023-03-28T22:48:34.751Z,1.00
2023-03-28T22:51:03.426Z,0.90
2023-03-28T22:53:31.571Z,1.00
2023-03-28T22:55:59.686Z,0.90
2023-03-28T22:58:29.061Z,0.90
2023-03-28T23:00:57.025Z,1.00
2023-03-28T23:03:24.967Z,1.00
2023-03-28T23:05:54.946Z,1.10
2023-03-28T23:08:23.150Z,1.20
2023-03-28T23:10:51.044Z,1.20
2023-03-28T23:13:19.080Z,1.20
2023-03-28T23:15:48.544Z,1.30
2023-03-28T23:18:16.453Z,1.30
2023-03-28T23:20:49.591Z,1.40
2023-03-28T23:23:18.118Z,1.40
2023-03-28T23:25:47.348Z,1.50
2023-03-28T23:28:16.824Z,1.50
2023-03-28T23:30:46.057Z,1.50
2023-03-28T23:33:15.299Z,1.50
2023-03-28T23:35:44.036Z,1.50
2023-03-28T23:38:14.038Z,1.50
2023-03-28T23:40:41.942Z,1.50
2023-03-28T23:43:09.888Z,1.50
2023-03-28T23:45:37.891Z,1.50
2023-03-28T23:48:07.291Z,1.50
2023-03-28T23:50:36.877Z,1.50
2023-03-28T23:53:05.760Z,1.50
2023-03-28T23:55:34.428Z,1.50
2023-03-28T23:58:04.629Z,1.50
